createdAt,value
2018-08-04T00:00:09.758Z,23.35
2018-08-04T00:02:39.587Z,23.33
2018-08-04T00:05:10.299Z,23.31
2018-08-04T00:07:40.336Z,23.24
2018-08-04T00:10:21.720Z,23.21
2018-08-04T00:12:52.144Z,23.17
2018-08-04T00:15:21.780Z,23.13
2018-08-04T00:17:51.253Z,23.06
2018-08-04T00:20:20.712Z,23.07
2018-08-04T00:22:50.125Z,23.03
2018-08-04T00:25:19.570Z,23.02
2018-08-04T00:27:49.051Z,22.99
2018-08-04T00:30:18.497Z,22.96
2018-08-04T00:32:47.962Z,22.93
2018-08-04T00:35:17.409Z,22.83
2018-08-04T00:37:46.894Z,22.77
2018-08-04T00:40:16.376Z,22.78
2018-08-04T00:42:45.874Z,22.74
2018-08-04T00:45:15.390Z,22.72
2018-08-04T00:47:44.813Z,22.67
2018-08-04T00:50:14.273Z,22.59
2018-08-04T00:52:43.736Z,22.56
2018-08-04T00:55:13.193Z,22.57
2018-08-04T00:57:42.816Z,22.54
2018-08-04T01:00:12.262Z,22.46
2018-08-04T01:02:41.705Z,22.41
2018-08-04T01:05:11.173Z,22.40
2018-08-04T01:07:40.571Z,22.38
2018-08-04T01:10:10.027Z,22.33
2018-08-04T01:12:39.501Z,22.30
2018-08-04T01:15:08.943Z,22.30
2018-08-04T01:17:38.446Z,22.30
2018-08-04T01:20:08.427Z,22.29
2018-08-04T01:22:37.926Z,22.27
2018-08-04T01:25:08.128Z,22.25
2018-08-04T01:27:37.572Z,22.24
2018-08-04T01:30:07.050Z,22.23
2018-08-04T01:32:36.471Z,22.19
2018-08-04T01:35:06.413Z,22.11
2018-08-04T01:37:36.176Z,22.13
2018-08-04T01:40:06.746Z,22.12
2018-08-04T01:42:36.142Z,22.11
2018-08-04T01:45:06.198Z,22.06
2018-08-04T01:47:35.662Z,22.03
2018-08-04T01:50:05.356Z,22.05
2018-08-04T01:52:34.838Z,22.05
2018-08-04T01:55:04.351Z,22.02
2018-08-04T01:57:33.751Z,21.96
2018-08-04T02:00:03.224Z,21.91
2018-08-04T02:02:32.693Z,21.89
2018-08-04T02:05:02.089Z,21.87
2018-08-04T02:07:31.699Z,21.87
2018-08-04T02:10:01.182Z,21.83
2018-08-04T02:12:30.676Z,21.78
2018-08-04T02:15:00.049Z,21.74
2018-08-04T02:17:29.476Z,21.75
2018-08-04T02:19:58.872Z,21.72
2018-08-04T02:22:28.312Z,21.69
2018-08-04T02:24:58.708Z,21.68
2018-08-04T02:27:30.189Z,21.66
2018-08-04T02:29:59.633Z,21.67
2018-08-04T02:32:32.765Z,21.62
2018-08-04T02:35:02.237Z,21.56
2018-08-04T02:37:31.410Z,21.50
2018-08-04T02:40:00.894Z,21.44
2018-08-04T02:42:30.369Z,21.48
2018-08-04T02:44:59.804Z,21.47
2018-08-04T02:47:29.247Z,21.47
2018-08-04T02:49:59.297Z,21.39
2018-08-04T02:52:28.683Z,21.40
2018-08-04T02:54:58.199Z,21.38
2018-08-04T02:57:27.303Z,21.34
2018-08-04T02:59:56.899Z,21.26
2018-08-04T03:02:26.375Z,21.26
2018-08-04T03:04:56.084Z,21.15
2018-08-04T03:07:25.556Z,21.06
2018-08-04T03:09:55.021Z,21.00
2018-08-04T03:12:24.494Z,20.99
2018-08-04T03:14:53.946Z,21.02
2018-08-04T03:17:23.476Z,21.01
2018-08-04T03:19:52.938Z,20.99
2018-08-04T03:22:22.361Z,20.96
2018-08-04T03:24:51.571Z,20.92
2018-08-04T03:27:21.044Z,20.91
2018-08-04T03:29:50.512Z,20.93
2018-08-04T03:32:19.913Z,20.94
2018-08-04T03:34:49.490Z,20.93
2018-08-04T03:37:19.098Z,20.95
2018-08-04T03:39:48.218Z,20.96
2018-08-04T03:42:17.718Z,20.95
2018-08-04T03:44:47.308Z,20.91
2018-08-04T03:47:16.472Z,20.89
2018-08-04T03:49:46.516Z,20.86
2018-08-04T03:52:15.670Z,20.82
2018-08-04T03:54:45.078Z,20.75
2018-08-04T03:57:14.472Z,20.70
2018-08-04T03:59:44.095Z,20.69
2018-08-04T04:02:13.558Z,20.71
2018-08-04T04:04:43.070Z,20.68
2018-08-04T04:07:12.491Z,20.68
2018-08-04T04:09:42.444Z,20.60
2018-08-04T04:12:11.906Z,20.55
2018-08-04T04:14:41.408Z,20.56
2018-08-04T04:17:10.996Z,20.55
2018-08-04T04:19:40.101Z,20.55
2018-08-04T04:22:09.486Z,20.60
2018-08-04T04:24:38.911Z,20.60
2018-08-04T04:27:08.070Z,20.57
2018-08-04T04:29:37.481Z,20.58
2018-08-04T04:32:07.623Z,20.53
2018-08-04T04:34:37.048Z,20.47
2018-08-04T04:37:06.515Z,20.45
2018-08-04T04:39:35.909Z,20.45
2018-08-04T04:42:11.847Z,20.44
2018-08-04T04:44:41.311Z,20.39
2018-08-04T04:47:10.480Z,20.39
2018-08-04T04:49:39.881Z,20.39
2018-08-04T04:52:09.326Z,20.40
2018-08-04T04:54:38.801Z,20.41
2018-08-04T04:57:08.297Z,20.43
2018-08-04T04:59:37.734Z,20.44
2018-08-04T05:02:07.242Z,20.46
2018-08-04T05:04:36.682Z,20.45
2018-08-04T05:07:06.157Z,20.48
2018-08-04T05:09:35.637Z,20.52
2018-08-04T05:12:05.244Z,20.52
2018-08-04T05:14:34.636Z,20.50
2018-08-04T05:17:04.118Z,20.50
2018-08-04T05:19:33.732Z,20.51
2018-08-04T05:22:03.191Z,20.56
2018-08-04T05:24:32.615Z,20.56
2018-08-04T05:27:02.153Z,20.57
2018-08-04T05:29:31.593Z,20.59
2018-08-04T05:32:01.060Z,20.64
2018-08-04T05:34:30.530Z,20.69
2018-08-04T05:37:00.038Z,20.72
2018-08-04T05:39:29.496Z,20.80
2018-08-04T05:41:59.025Z,20.87
2018-08-04T05:44:28.904Z,20.95
2018-08-04T05:46:58.392Z,20.97
2018-08-04T05:49:27.781Z,21.02
2018-08-04T05:51:57.161Z,21.04
2018-08-04T05:54:26.594Z,21.10
2018-08-04T05:56:55.997Z,21.14
2018-08-04T05:59:25.505Z,21.19
2018-08-04T06:01:54.981Z,21.22
2018-08-04T06:04:24.485Z,21.24
2018-08-04T06:06:53.664Z,21.28
2018-08-04T06:09:23.082Z,21.32
2018-08-04T06:11:53.589Z,21.33
2018-08-04T06:14:23.178Z,21.37
2018-08-04T06:16:52.564Z,21.41
2018-08-04T06:19:21.926Z,21.47
2018-08-04T06:21:51.302Z,21.50
2018-08-04T06:24:20.660Z,21.53
2018-08-04T06:26:50.026Z,21.56
2018-08-04T06:29:19.884Z,21.61
2018-08-04T06:31:49.244Z,21.66
2018-08-04T06:34:18.649Z,21.72
2018-08-04T06:36:48.074Z,21.79
2018-08-04T06:39:17.467Z,21.87
2018-08-04T06:41:46.881Z,21.92
2018-08-04T06:44:16.259Z,21.99
2018-08-04T06:46:45.632Z,22.03
2018-08-04T06:49:15.526Z,22.09
2018-08-04T06:51:44.888Z,22.16
2018-08-04T06:54:14.261Z,22.20
2018-08-04T06:56:43.642Z,22.26
2018-08-04T06:59:13.004Z,22.33
2018-08-04T07:01:42.669Z,22.38
2018-08-04T07:04:12.032Z,22.45
2018-08-04T07:06:41.132Z,22.52
2018-08-04T07:09:10.857Z,22.58
2018-08-04T07:11:40.236Z,22.67
2018-08-04T07:14:09.459Z,22.73
2018-08-04T07:16:39.102Z,22.81
2018-08-04T07:19:08.493Z,22.88
2018-08-04T07:21:37.897Z,22.96
2018-08-04T07:24:07.300Z,23.05
2018-08-04T07:26:36.668Z,23.15
2018-08-04T07:29:05.900Z,23.25
2018-08-04T07:31:35.229Z,23.35
2018-08-04T07:34:04.686Z,23.44
2018-08-04T07:36:34.132Z,23.54
2018-08-04T07:39:04.296Z,23.64
2018-08-04T07:41:33.720Z,23.72
2018-08-04T07:44:03.464Z,23.82
2018-08-04T07:46:32.843Z,23.90
2018-08-04T07:49:02.276Z,24.01
2018-08-04T07:51:31.398Z,24.09
2018-08-04T07:54:01.497Z,24.16
2018-08-04T07:56:30.880Z,24.26
2018-08-04T07:59:00.268Z,24.35
2018-08-04T08:01:29.629Z,24.43
2018-08-04T08:03:59.030Z,24.50
2018-08-04T08:06:28.440Z,24.57
2018-08-04T08:08:57.814Z,24.68
2018-08-04T08:11:27.202Z,24.75
2018-08-04T08:13:56.522Z,24.83
2018-08-04T08:16:25.922Z,24.94
2018-08-04T08:18:55.287Z,25.01
2018-08-04T08:21:27.651Z,25.22
2018-08-04T08:23:57.082Z,25.29
2018-08-04T08:26:26.483Z,25.32
2018-08-04T08:28:55.861Z,25.37
2018-08-04T08:31:25.290Z,25.50
2018-08-04T08:33:54.658Z,25.56
2018-08-04T08:36:24.045Z,25.59
2018-08-04T08:38:53.435Z,25.74
2018-08-04T08:41:22.857Z,25.87
2018-08-04T08:43:52.523Z,25.98
2018-08-04T08:46:21.885Z,26.08
2018-08-04T08:48:51.264Z,26.24
2018-08-04T08:51:20.686Z,26.41
2018-08-04T08:53:50.052Z,26.45
2018-08-04T08:56:19.512Z,26.49
2018-08-04T08:58:48.845Z,26.60
2018-08-04T09:01:18.254Z,26.75
2018-08-04T09:03:47.310Z,26.81
2018-08-04T09:06:16.732Z,26.86
2018-08-04T09:08:45.853Z,27.00
2018-08-04T09:11:14.938Z,27.09
2018-08-04T09:13:44.333Z,27.19
2018-08-04T09:16:13.434Z,27.22
2018-08-04T09:18:42.527Z,27.28
2018-08-04T09:21:11.925Z,27.35
2018-08-04T09:23:41.049Z,27.35
2018-08-04T09:26:10.457Z,27.32
2018-08-04T09:28:39.863Z,27.31
2018-08-04T09:31:09.241Z,27.31
2018-08-04T09:33:38.319Z,27.38
2018-08-04T09:36:07.822Z,27.49
2018-08-04T09:38:37.177Z,27.56
2018-08-04T09:41:06.608Z,27.73
2018-08-04T09:43:36.003Z,27.86
2018-08-04T09:46:05.662Z,28.05
2018-08-04T09:48:34.777Z,28.10
2018-08-04T09:51:04.180Z,28.09
2018-08-04T09:53:33.600Z,28.24
2018-08-04T09:56:03.100Z,28.24
2018-08-04T09:58:32.473Z,28.22
2018-08-04T10:01:07.068Z,28.24
2018-08-04T10:03:36.430Z,28.27
2018-08-04T10:06:05.917Z,28.30
2018-08-04T10:08:34.992Z,28.37
2018-08-04T10:11:04.435Z,28.46
2018-08-04T10:13:33.856Z,28.43
2018-08-04T10:16:03.262Z,28.46
2018-08-04T10:18:32.709Z,28.56
2018-08-04T10:21:02.100Z,28.56
2018-08-04T10:23:31.544Z,28.60
2018-08-04T10:26:03.446Z,28.71
2018-08-04T10:28:32.531Z,28.83
2018-08-04T10:31:02.557Z,29.02
2018-08-04T10:33:31.945Z,29.10
2018-08-04T10:36:01.350Z,29.14
2018-08-04T10:38:30.756Z,29.18
2018-08-04T10:41:00.107Z,29.17
2018-08-04T10:43:29.530Z,29.20
2018-08-04T10:45:58.940Z,29.18
2018-08-04T10:48:28.349Z,29.24
2018-08-04T10:50:57.767Z,29.39
2018-08-04T10:53:27.158Z,29.49
2018-08-04T10:55:56.265Z,29.52
2018-08-04T10:58:25.665Z,29.63
2018-08-04T11:00:55.572Z,29.72
2018-08-04T11:03:24.958Z,29.74
2018-08-04T11:05:55.070Z,29.76
2018-08-04T11:08:24.527Z,29.81
2018-08-04T11:10:53.939Z,29.81
2018-08-04T11:13:23.349Z,29.86
2018-08-04T11:15:52.726Z,29.90
2018-08-04T11:18:22.087Z,29.90
2018-08-04T11:20:51.508Z,29.96
2018-08-04T11:23:20.944Z,29.98
2018-08-04T11:25:50.338Z,30.05
2018-08-04T11:28:19.767Z,30.19
2018-08-04T11:30:49.197Z,30.21
2018-08-04T11:33:18.488Z,30.31
2018-08-04T11:35:47.856Z,30.19
2018-08-04T11:38:17.280Z,30.10
2018-08-04T11:40:47.030Z,30.11
2018-08-04T11:43:16.737Z,30.00
2018-08-04T11:45:46.206Z,30.00
2018-08-04T11:48:15.627Z,29.93
2018-08-04T11:50:45.022Z,29.90
2018-08-04T11:53:14.426Z,29.89
2018-08-04T11:55:43.805Z,29.86
2018-08-04T11:58:13.212Z,29.86
2018-08-04T12:00:42.839Z,29.89
2018-08-04T12:03:12.252Z,30.00
2018-08-04T12:05:41.632Z,30.03
2018-08-04T12:08:11.017Z,30.04
2018-08-04T12:10:40.422Z,30.05
2018-08-04T12:13:09.490Z,30.07
2018-08-04T12:15:38.898Z,30.11
2018-08-04T12:18:08.374Z,30.13
2018-08-04T12:20:37.706Z,30.13
2018-08-04T12:23:07.145Z,30.20
2018-08-04T12:25:37.378Z,30.26
2018-08-04T12:28:06.789Z,30.25
2018-08-04T12:30:36.182Z,30.41
2018-08-04T12:33:05.788Z,30.42
2018-08-04T12:35:35.159Z,30.42
2018-08-04T12:38:04.657Z,30.45
2018-08-04T12:40:34.047Z,30.55
2018-08-04T12:43:03.437Z,30.57
2018-08-04T12:45:32.871Z,30.60
2018-08-04T12:48:02.202Z,30.65
2018-08-04T12:50:31.577Z,30.76
2018-08-04T12:53:01.268Z,30.85
2018-08-04T12:55:30.612Z,30.84
2018-08-04T12:57:59.983Z,30.84
2018-08-04T13:00:29.365Z,30.90
2018-08-04T13:02:58.779Z,30.97
2018-08-04T13:05:28.156Z,31.09
2018-08-04T13:07:57.573Z,31.15
2018-08-04T13:10:26.934Z,31.20
2018-08-04T13:12:56.312Z,31.15
2018-08-04T13:15:25.689Z,31.21
2018-08-04T13:17:55.092Z,31.25
2018-08-04T13:20:24.500Z,31.28
2018-08-04T13:22:53.900Z,31.36
2018-08-04T13:25:23.286Z,31.42
2018-08-04T13:27:52.777Z,31.48
2018-08-04T13:30:21.961Z,31.56
2018-08-04T13:32:51.306Z,31.62
2018-08-04T13:35:20.681Z,31.66
2018-08-04T13:37:49.780Z,31.69
2018-08-04T13:40:19.159Z,31.76
2018-08-04T13:42:48.551Z,31.94
2018-08-04T13:45:17.986Z,32.05
2018-08-04T13:47:47.390Z,32.09
2018-08-04T13:50:16.846Z,32.36
2018-08-04T13:52:45.932Z,32.35
2018-08-04T13:55:15.400Z,32.50
2018-08-04T13:57:44.499Z,32.43
2018-08-04T14:00:13.892Z,32.41
2018-08-04T14:02:43.312Z,32.50
2018-08-04T14:05:12.425Z,32.58
2018-08-04T14:07:41.834Z,32.65
2018-08-04T14:10:11.254Z,32.74
2018-08-04T14:12:40.684Z,32.87
2018-08-04T14:15:10.074Z,32.99
2018-08-04T14:17:39.508Z,32.90
2018-08-04T14:20:08.894Z,32.83
2018-08-04T14:22:38.285Z,32.90
2018-08-04T14:25:07.665Z,32.86
2018-08-04T14:27:37.070Z,32.86
2018-08-04T14:30:09.575Z,32.78
2018-08-04T14:32:38.964Z,32.68
2018-08-04T14:35:08.338Z,32.66
2018-08-04T14:37:37.742Z,32.65
2018-08-04T14:40:07.817Z,32.62
2018-08-04T14:42:37.253Z,32.58
2018-08-04T14:45:06.613Z,32.61
2018-08-04T14:47:36.060Z,32.56
2018-08-04T14:50:05.785Z,32.63
2018-08-04T14:52:35.196Z,32.71
2018-08-04T14:55:04.678Z,32.60
2018-08-04T14:57:34.067Z,32.62
2018-08-04T15:00:03.489Z,32.84
2018-08-04T15:02:32.916Z,33.03
2018-08-04T15:05:02.729Z,33.14
2018-08-04T15:07:31.980Z,33.29
2018-08-04T15:10:01.389Z,33.40
2018-08-04T15:12:30.738Z,33.40
2018-08-04T15:15:00.732Z,33.46
2018-08-04T15:17:30.122Z,33.51
2018-08-04T15:19:59.575Z,33.52
2018-08-04T15:22:29.495Z,33.64
2018-08-04T15:24:59.009Z,33.77
2018-08-04T15:27:28.389Z,33.84
2018-08-04T15:29:57.741Z,33.95
2018-08-04T15:32:27.098Z,34.07
2018-08-04T15:34:56.507Z,34.17
2018-08-04T15:37:25.969Z,34.20
2018-08-04T15:39:55.409Z,34.19
2018-08-04T15:42:24.812Z,34.21
2018-08-04T15:44:54.171Z,34.24
2018-08-04T15:47:24.070Z,34.28
2018-08-04T15:49:53.686Z,34.33
2018-08-04T15:52:23.130Z,34.36
2018-08-04T15:54:52.508Z,34.36
2018-08-04T15:57:21.952Z,34.35
2018-08-04T15:59:51.080Z,34.34
2018-08-04T16:02:20.510Z,34.31
2018-08-04T16:04:49.881Z,34.21
2018-08-04T16:07:19.301Z,34.06
2018-08-04T16:09:48.666Z,33.98
2018-08-04T16:12:18.044Z,33.91
2018-08-04T16:14:47.657Z,33.77
2018-08-04T16:17:17.004Z,33.75
2018-08-04T16:19:46.369Z,33.72
2018-08-04T16:22:15.773Z,33.67
2018-08-04T16:24:45.132Z,33.59
2018-08-04T16:27:15.010Z,33.56
2018-08-04T16:29:44.362Z,33.51
2018-08-04T16:32:13.701Z,33.37
2018-08-04T16:34:42.816Z,33.43
2018-08-04T16:37:12.210Z,33.38
2018-08-04T16:39:41.582Z,33.34
2018-08-04T16:42:11.433Z,33.25
2018-08-04T16:44:40.855Z,33.25
2018-08-04T16:47:10.234Z,33.19
2018-08-04T16:49:39.585Z,33.21
2018-08-04T16:52:08.977Z,33.19
2018-08-04T16:54:38.332Z,33.09
2018-08-04T16:57:08.231Z,33.19
2018-08-04T16:59:37.573Z,33.19
2018-08-04T17:02:06.712Z,33.03
2018-08-04T17:04:36.062Z,33.03
2018-08-04T17:07:06.056Z,33.00
2018-08-04T17:09:35.454Z,32.82
2018-08-04T17:12:04.921Z,32.84
2018-08-04T17:14:34.289Z,32.79
2018-08-04T17:17:03.421Z,32.71
2018-08-04T17:19:32.823Z,32.72
2018-08-04T17:22:02.337Z,32.67
2018-08-04T17:24:31.719Z,32.60
2018-08-04T17:27:01.117Z,32.61
2018-08-04T17:29:30.194Z,32.58
2018-08-04T17:31:59.649Z,32.42
2018-08-04T17:34:29.469Z,32.33
2018-08-04T17:36:58.817Z,32.34
2018-08-04T17:39:28.195Z,32.22
2018-08-04T17:41:57.669Z,32.17
2018-08-04T17:44:27.074Z,32.14
2018-08-04T17:46:56.432Z,31.96
2018-08-04T17:49:26.108Z,31.92
2018-08-04T17:51:55.553Z,31.84
2018-08-04T17:54:25.006Z,31.77
2018-08-04T17:56:54.566Z,31.72
2018-08-04T17:59:24.156Z,31.65
2018-08-04T18:01:53.603Z,31.63
2018-08-04T18:04:22.965Z,31.50
2018-08-04T18:06:52.458Z,31.45
2018-08-04T18:09:21.950Z,31.37
2018-08-04T18:11:51.858Z,31.35
2018-08-04T18:14:21.248Z,31.29
2018-08-04T18:16:50.760Z,31.20
2018-08-04T18:19:20.111Z,31.14
2018-08-04T18:21:50.937Z,31.09
2018-08-04T18:24:20.813Z,31.03
2018-08-04T18:26:50.430Z,30.89
2018-08-04T18:29:19.836Z,30.81
2018-08-04T18:31:49.308Z,30.74
2018-08-04T18:34:19.265Z,30.66
2018-08-04T18:36:48.617Z,30.62
2018-08-04T18:39:18.021Z,30.50
2018-08-04T18:41:47.396Z,30.45
2018-08-04T18:44:16.807Z,30.37
2018-08-04T18:46:46.241Z,30.28
2018-08-04T18:49:15.345Z,30.13
2018-08-04T18:51:44.761Z,30.06
2018-08-04T18:54:13.847Z,29.91
2018-08-04T18:56:43.230Z,29.85
2018-08-04T18:59:12.633Z,29.82
2018-08-04T19:01:42.028Z,29.69
2018-08-04T19:04:11.449Z,29.58
2018-08-04T19:06:40.841Z,29.53
2018-08-04T19:09:11.554Z,29.38
2018-08-04T19:11:41.146Z,29.26
2018-08-04T19:14:11.048Z,29.18
2018-08-04T19:16:40.446Z,29.10
2018-08-04T19:19:09.859Z,29.00
2018-08-04T19:21:39.355Z,28.92
2018-08-04T19:24:08.751Z,28.86
2018-08-04T19:26:37.862Z,28.81
2018-08-04T19:29:07.240Z,28.78
2018-08-04T19:31:36.667Z,28.70
2018-08-04T19:34:06.208Z,28.62
2018-08-04T19:36:35.586Z,28.56
2018-08-04T19:39:07.542Z,28.44
2018-08-04T19:41:36.915Z,28.42
2018-08-04T19:44:07.236Z,28.39
2018-08-04T19:46:36.694Z,28.32
2018-08-04T19:49:06.090Z,28.27
2018-08-04T19:51:35.452Z,28.20
2018-08-04T19:54:04.821Z,28.10
2018-08-04T19:56:34.230Z,27.95
2018-08-04T19:59:03.856Z,27.92
2018-08-04T20:01:33.262Z,27.89
2018-08-04T20:04:02.675Z,27.87
2018-08-04T20:06:32.151Z,27.85
2018-08-04T20:09:01.508Z,27.82
2018-08-04T20:11:30.664Z,27.79
2018-08-04T20:14:00.004Z,27.67
2018-08-04T20:16:29.387Z,27.62
2018-08-04T20:18:58.797Z,27.53
2018-08-04T20:21:28.217Z,27.42
2018-08-04T20:23:57.328Z,27.35
2018-08-04T20:26:26.765Z,27.32
2018-08-04T20:28:56.214Z,27.22
2018-08-04T20:31:25.598Z,27.10
2018-08-04T20:33:54.999Z,27.05
2018-08-04T20:36:24.394Z,26.97
2018-08-04T20:38:53.756Z,26.86
2018-08-04T20:41:23.128Z,26.83
2018-08-04T20:43:52.539Z,26.78
2018-08-04T20:46:21.655Z,26.74
2018-08-04T20:48:50.993Z,26.75
2018-08-04T20:51:20.381Z,26.68
2018-08-04T20:53:49.734Z,26.56
2018-08-04T20:56:19.120Z,26.48
2018-08-04T20:58:48.648Z,26.44
2018-08-04T21:02:26.345Z,26.32
2018-08-04T21:04:55.745Z,26.24
2018-08-04T21:07:25.117Z,26.12
2018-08-04T21:09:54.841Z,26.06
2018-08-04T21:12:24.220Z,25.98
2018-08-04T21:14:53.610Z,25.92
2018-08-04T21:17:22.989Z,25.89
2018-08-04T21:19:52.391Z,25.86
2018-08-04T21:22:21.775Z,25.83
2018-08-04T21:24:51.258Z,25.75
2018-08-04T21:27:20.649Z,25.71
2018-08-04T21:29:50.048Z,25.62
2018-08-04T21:32:19.448Z,25.65
2018-08-04T21:34:48.814Z,25.62
2018-08-04T21:37:18.184Z,25.60
2018-08-04T21:39:47.545Z,25.55
2018-08-04T21:42:16.952Z,25.48
2018-08-04T21:44:46.364Z,25.45
2018-08-04T21:47:15.712Z,25.37
2018-08-04T21:49:45.093Z,25.32
2018-08-04T21:52:14.481Z,25.26
2018-08-04T21:54:44.874Z,25.23
2018-08-04T21:57:14.736Z,25.16
2018-08-04T21:59:44.102Z,25.12
2018-08-04T22:02:13.202Z,25.06
2018-08-04T22:04:42.596Z,25.00
2018-08-04T22:07:54.430Z,24.95
2018-08-04T22:10:23.951Z,24.92
2018-08-04T22:12:53.936Z,24.87
2018-08-04T22:15:23.293Z,24.88
2018-08-04T22:17:52.655Z,24.91
2018-08-04T22:20:22.818Z,24.92
2018-08-04T22:22:52.351Z,24.86
2018-08-04T22:25:23.343Z,24.85
2018-08-04T22:27:54.201Z,24.87
2018-08-04T22:30:24.005Z,24.88
2018-08-04T22:32:53.734Z,24.84
2018-08-04T22:35:23.533Z,24.83
2018-08-04T22:37:52.901Z,24.88
2018-08-04T22:40:22.651Z,24.93
2018-08-04T22:42:52.013Z,24.94
2018-08-04T22:45:34.265Z,24.99
2018-08-04T22:48:03.648Z,24.96
2018-08-04T22:50:33.060Z,24.95
2018-08-04T22:53:02.417Z,24.96
2018-08-04T22:55:31.526Z,24.98
2018-08-04T22:58:00.885Z,24.97
2018-08-04T23:00:30.253Z,25.01
2018-08-04T23:02:59.636Z,25.04
2018-08-04T23:05:28.732Z,25.06
2018-08-04T23:07:58.160Z,25.10
2018-08-04T23:10:27.515Z,25.11
2018-08-04T23:12:57.482Z,25.13
2018-08-04T23:15:27.413Z,25.18
2018-08-04T23:17:56.786Z,25.21
2018-08-04T23:20:26.469Z,25.19
2018-08-04T23:22:55.877Z,25.20
2018-08-04T23:25:25.552Z,25.23
2018-08-04T23:27:54.949Z,25.23
2018-08-04T23:30:24.346Z,25.23
2018-08-04T23:32:54.116Z,25.26
2018-08-04T23:35:24.717Z,25.25
2018-08-04T23:37:54.410Z,25.25
2018-08-04T23:40:23.993Z,25.26
2018-08-04T23:42:53.405Z,25.28
2018-08-04T23:45:22.757Z,25.25
2018-08-04T23:47:52.105Z,25.26
2018-08-04T23:50:21.517Z,25.25
2018-08-04T23:52:50.953Z,25.23
2018-08-04T23:55:20.315Z,25.22
2018-08-04T23:57:49.733Z,25.18
